Time;durP1;ratioP1;P1;durP2;ratioP2;P2;SDS_P1;SDS_P2;PMS_P1;PMS_P2;Temp;Humidity;BMP_temperature;BMP_pressure;BME280_temperature;BME280_humidity;BME280_pressure;Samples;Min_cycle;Max_cycle;Signal;HPM_P1;HPM_P2
2022/09/09 00:02:19;;;;;;;10.10;5.63;;;;;;;15.20;100.00;100881.41;5051320;28;20472;-74
2022/09/09 00:04:49;;;;;;;5.20;4.70;;;;;;;14.30;100.00;100722.00;5065635;28;20184;-74
2022/09/09 00:07:30;;;;;;;7.43;5.27;;;;;;;15.20;100.00;100857.09;5047341;28;20921;-74
2022/09/09 00:10:25;;;;;;;7.70;5.67;;;;;;;15.06;100.00;100848.34;5047252;28;20456;-74
2022/09/09 00:13:17;;;;;;;6.43;5.43;;;;;;;14.59;100.00;100779.81;5037519;28;20480;-74
2022/09/09 00:16:09;;;;;;;6.13;5.60;;;;;;;14.88;100.00;100829.47;5046641;28;20457;-74
2022/09/09 00:19:04;;;;;;;6.90;5.27;;;;;;;14.96;100.00;100847.25;5048712;28;20446;-74
2022/09/09 00:21:37;;;;;;;6.40;5.80;;;;;;;14.15;100.00;100757.47;5049859;28;21095;-74
2022/09/09 00:24:25;;;;;;;7.73;5.43;;;;;;;14.90;100.00;100851.69;5039680;28;20983;-74
2022/09/09 00:26:57;;;;;;;6.23;5.63;;;;;;;14.94;100.00;100857.47;5050917;28;20828;-74
2022/09/09 00:29:35;;;;;;;5.93;5.33;;;;;;;14.92;100.00;100854.97;5050878;28;20442;-74
2022/09/09 00:32:12;;;;;;;8.73;6.10;;;;;;;14.32;100.00;100784.63;5040673;28;20433;-74
2022/09/09 00:34:52;;;;;;;6.57;5.50;;;;;;;14.72;100.00;100862.50;5047586;28;20452;-74
2022/09/09 00:37:19;;;;;;;6.27;5.67;;;;;;;14.42;100.00;100777.69;5044120;28;20449;-74
2022/09/09 00:39:51;;;;;;;6.77;5.10;;;;;;;14.12;100.00;100730.94;5051709;28;20474;-74
2022/09/09 00:42:24;;;;;;;8.03;5.50;;;;;;;14.22;100.00;100755.50;5045404;28;20441;-74
2022/09/09 00:45:13;;;;;;;8.10;5.40;;;;;;;14.89;100.00;100850.03;5045947;28;20437;-74
2022/09/09 00:47:42;;;;;;;5.60;5.10;;;;;;;14.85;100.00;100846.16;5047935;28;20511;-74
2022/09/09 00:50:17;;;;;;;6.03;5.53;;;;;;;14.77;100.00;100852.66;5048997;28;20452;-74
2022/09/09 00:52:42;;;;;;;6.97;5.43;;;;;;;14.69;100.00;100850.25;5047176;28;20470;-74
2022/09/09 00:55:40;;;;;;;5.87;4.57;;;;;;;14.54;100.00;100799.34;5047751;28;20980;-74
2022/09/09 00:58:10;;;;;;;6.63;5.33;;;;;;;14.60;100.00;100817.34;5050985;28;20218;-75
2022/09/09 01:00:43;;;;;;;6.30;4.87;;;;;;;14.67;100.00;100847.81;5047545;28;20493;-75
2022/09/09 01:03:24;;;;;;;7.10;5.23;;;;;;;14.55;100.00;100855.00;5047103;28;20469;-74
2022/09/09 01:06:12;;;;;;;6.40;5.33;;;;;;;14.65;100.00;100857.19;5049070;28;20469;-74
2022/09/09 01:09:07;;;;;;;5.33;4.83;;;;;;;14.61;100.00;100867.59;5045959;28;20471;-74
2022/09/09 01:12:02;;;;;;;7.60;5.90;;;;;;;14.83;100.00;100867.13;5045692;28;21126;-74
2022/09/09 01:14:33;;;;;;;5.93;5.37;;;;;;;14.72;100.00;100865.19;5044352;28;20461;-74
2022/09/09 01:17:09;;;;;;;7.63;5.47;;;;;;;14.09;100.00;100774.50;5049129;28;20440;-74
2022/09/09 01:19:55;;;;;;;6.30;4.90;;;;;;;14.81;100.00;100847.63;5044458;28;20433;-74
2022/09/09 01:22:50;;;;;;;5.40;4.87;;;;;;;14.98;100.00;100842.44;5048826;28;20438;-74
2022/09/09 01:25:49;;;;;;;6.00;5.40;;;;;;;14.69;100.00;100840.31;5050716;28;20426;-74
2022/09/09 01:28:19;;;;;;;5.73;5.20;;;;;;;14.52;100.00;100844.63;5048325;28;20458;-74
2022/09/09 01:30:44;;;;;;;7.23;5.73;;;;;;;13.87;100.00;100737.19;5048847;28;20470;-74
2022/09/09 01:33:14;;;;;;;10.57;6.40;;;;;;;14.69;100.00;100842.16;5048698;28;21038;-74
2022/09/09 01:35:55;;;;;;;6.23;4.20;;;;;;;13.77;100.00;100710.75;5051116;28;20199;-74
2022/09/09 01:38:22;;;;;;;8.27;5.10;;;;;;;14.37;100.00;100820.69;5050167;28;20447;-74
2022/09/09 01:40:49;;;;;;;4.60;4.20;;;;;;;14.06;100.00;100770.41;5053835;28;20615;-74
2022/09/09 01:43:14;;;;;;;7.57;5.20;;;;;;;13.95;100.00;100720.72;5052278;28;20511;-74
2022/09/09 01:45:42;;;;;;;5.90;5.07;;;;;;;14.37;100.00;100853.06;5051309;28;20934;-74
2022/09/09 01:48:07;;;;;;;7.70;5.33;;;;;;;13.92;100.00;100767.03;5049037;28;20179;-74
2022/09/09 01:50:33;;;;;;;5.93;5.13;;;;;;;13.62;100.00;100714.84;5052065;28;20534;-74
2022/09/09 01:53:01;;;;;;;6.77;5.77;;;;;;;14.46;100.00;100835.56;5051427;28;20218;-74
2022/09/09 01:55:39;;;;;;;7.20;6.00;;;;;;;13.79;100.00;100732.91;5054026;28;20216;-74
2022/09/09 01:58:04;;;;;;;6.27;5.67;;;;;;;14.46;100.00;100826.63;5056816;28;20437;-74
2022/09/09 02:00:33;;;;;;;6.00;5.20;;;;;;;14.60;100.00;100841.66;5048902;28;20473;-74
2022/09/09 02:03:25;;;;;;;7.80;5.30;;;;;;;14.58;100.00;100824.03;5049303;28;20184;-74
2022/09/09 02:06:14;;;;;;;5.83;5.10;;;;;;;13.87;100.00;100745.28;5053400;28;20931;-74
2022/09/09 02:08:45;;;;;;;6.60;5.93;;;;;;;13.95;100.00;100771.97;5053850;28;20482;-74
2022/09/09 02:11:16;;;;;;;6.70;5.03;;;;;;;14.61;100.00;100835.22;5047381;28;20457;-74
2022/09/09 02:13:45;;;;;;;5.80;5.17;;;;;;;13.76;100.00;100695.63;5063506;28;20549;-74
2022/09/09 02:16:31;;;;;;;5.60;5.00;;;;;;;14.68;100.00;100825.16;5052102;28;20814;-74
2022/09/09 02:19:06;;;;;;;5.83;5.23;;;;;;;14.79;100.00;100830.84;5052788;28;20525;-74
2022/09/09 02:21:34;;;;;;;6.20;5.40;;;;;;;14.36;100.00;100802.88;5050720;28;20478;-74
2022/09/09 02:24:04;;;;;;;7.57;6.13;;;;;;;14.53;100.00;100822.00;5053922;28;20516;-74
2022/09/09 02:26:32;;;;;;;6.47;5.57;;;;;;;14.25;100.00;100796.31;5045576;28;21000;-74
2022/09/09 02:29:02;;;;;;;8.20;6.90;;;;;;;13.88;100.00;100767.66;5050200;28;20528;-74
2022/09/09 02:31:28;;;;;;;8.83;6.67;;;;;;;13.70;100.00;100709.97;5047822;28;20963;-73
2022/09/09 02:34:01;;;;;;;8.43;6.40;;;;;;;14.18;100.00;100813.66;5052659;28;20518;-74
2022/09/09 02:36:33;;;;;;;7.57;6.70;;;;;;;14.05;100.00;100784.94;5053108;28;20656;-74
2022/09/09 02:38:59;;;;;;;8.90;7.00;;;;;;;14.29;100.00;100825.56;5053023;28;21006;-74
2022/09/09 02:41:33;;;;;;;9.30;6.50;;;;;;;13.63;100.00;100689.56;5047963;28;21179;-74
2022/09/09 02:43:59;;;;;;;7.60;6.40;;;;;;;14.49;100.00;100812.66;5049371;28;20432;-74
2022/09/09 02:46:35;;;;;;;7.83;6.60;;;;;;;14.35;100.00;100820.13;5046194;28;20498;-74
2022/09/09 02:49:12;;;;;;;9.70;6.90;;;;;;;14.31;100.00;100797.31;5051521;28;20662;-74
2022/09/09 02:52:07;;;;;;;8.67;7.00;;;;;;;14.37;100.00;100817.16;5048139;28;20465;-74
2022/09/09 02:54:36;;;;;;;10.10;6.20;;;;;;;14.35;100.00;100808.47;5047287;28;20484;-73
2022/09/09 02:57:22;;;;;;;7.73;6.70;;;;;;;14.41;100.00;100826.50;5048598;28;20444;-73
2022/09/09 02:59:49;;;;;;;12.57;9.03;;;;;;;13.56;100.00;100711.16;5049188;28;20443;-74
2022/09/09 03:02:15;;;;;;;12.20;7.83;;;;;;;13.52;100.00;100683.03;5051586;28;20445;-74
2022/09/09 03:04:43;;;;;;;7.30;6.60;;;;;;;14.56;100.00;100835.06;5049028;28;20979;-73
2022/09/09 03:07:09;;;;;;;7.83;7.00;;;;;;;13.68;100.00;100681.59;5050143;28;20195;-74
2022/09/09 03:09:35;;;;;;;12.60;8.53;;;;;;;13.54;100.00;100702.50;5048837;28;20937;-74
2022/09/09 03:12:00;;;;;;;9.23;7.20;;;;;;;14.33;100.00;100797.91;5052461;28;20935;-74
2022/09/09 03:14:26;;;;;;;9.83;7.70;;;;;;;13.83;100.00;100729.75;5052876;28;20208;-75
2022/09/09 03:16:52;;;;;;;9.40;7.77;;;;;;;14.36;100.00;100839.81;5049760;28;20203;-75
2022/09/09 03:19:18;;;;;;;11.10;7.37;;;;;;;14.16;100.00;100783.38;5051981;28;20213;-74
2022/09/09 03:21:45;;;;;;;10.00;7.37;;;;;;;13.50;100.00;100664.38;5056037;28;20501;-75
2022/09/09 03:24:10;;;;;;;9.00;8.10;;;;;;;13.59;100.00;100672.97;5053486;28;20787;-74
2022/09/09 03:26:37;;;;;;;9.80;7.80;;;;;;;13.98;100.00;100731.06;5053033;28;20438;-74
2022/09/09 03:29:06;;;;;;;13.60;7.03;;;;;;;14.34;100.00;100744.78;5048698;28;20187;-74
2022/09/09 03:31:32;;;;;;;10.00;7.17;;;;;;;14.68;100.00;100811.66;5051689;28;20462;-74
2022/09/09 03:33:58;;;;;;;9.97;7.17;;;;;;;13.60;100.00;100658.47;5047767;28;20473;-74
2022/09/09 03:36:26;;;;;;;7.63;6.83;;;;;;;14.94;100.00;100820.47;5046470;28;20438;-75
2022/09/09 03:38:51;;;;;;;9.67;7.63;;;;;;;14.46;100.00;100808.56;5052944;28;20556;-74
2022/09/09 03:41:17;;;;;;;10.67;6.33;;;;;;;13.94;100.00;100713.69;5051292;28;20453;-74
2022/09/09 03:43:42;;;;;;;9.23;7.47;;;;;;;13.76;100.00;100711.78;5043935;28;20184;-75
2022/09/09 03:46:08;;;;;;;7.67;6.97;;;;;;;14.17;100.00;100725.66;5046002;28;21059;-75
2022/09/09 03:48:33;;;;;;;8.50;6.93;;;;;;;14.07;100.00;100728.06;5053116;28;20184;-74
2022/09/09 03:51:01;;;;;;;8.73;7.40;;;;;;;14.61;100.00;100819.03;5049799;28;20762;-74
2022/09/09 03:53:27;;;;;;;10.73;7.73;;;;;;;14.29;100.00;100803.97;5042707;28;20212;-74
2022/09/09 03:55:54;;;;;;;7.70;6.90;;;;;;;13.31;100.00;100676.16;5051850;28;20831;-74
2022/09/09 03:58:21;;;;;;;9.27;7.40;;;;;;;13.47;100.00;100699.00;5048251;28;20442;-74
2022/09/09 04:00:57;;;;;;;11.17;7.97;;;;;;;14.14;100.00;100825.91;5045900;28;20508;-74
2022/09/09 04:03:24;;;;;;;8.80;7.80;;;;;;;13.59;100.00;100759.22;5049162;28;20455;-74
2022/09/09 04:05:51;;;;;;;8.10;7.30;;;;;;;13.79;100.00;100784.13;5044805;28;20477;-74
2022/09/09 04:08:16;;;;;;;10.93;8.10;;;;;;;14.18;100.00;100843.31;5036514;22;20995;-72
2022/09/09 04:10:42;;;;;;;10.50;7.90;;;;;;;13.59;100.00;100742.22;5025927;28;20457;-72
2022/09/09 04:13:07;;;;;;;8.17;7.07;;;;;;;13.85;100.00;100770.81;5031621;28;20219;-72
2022/09/09 04:15:33;;;;;;;7.57;6.87;;;;;;;13.82;100.00;100795.53;5029860;28;20196;-73
2022/09/09 04:17:58;;;;;;;8.70;7.40;;;;;;;13.67;100.00;100740.09;5031737;28;20216;-73
2022/09/09 04:20:23;;;;;;;9.97;7.07;;;;;;;13.68;100.00;100755.22;5027951;28;20220;-72
2022/09/09 04:22:49;;;;;;;8.30;7.50;;;;;;;14.18;100.00;100830.66;5021527;28;20199;-72
2022/09/09 04:25:15;;;;;;;8.13;7.30;;;;;;;13.18;100.00;100687.81;5023477;28;20569;-72
2022/09/09 04:27:42;;;;;;;7.93;7.07;;;;;;;13.74;100.00;100778.59;5026915;28;20219;-72
2022/09/09 04:30:08;;;;;;;10.67;6.67;;;;;;;14.12;100.00;100839.66;5029533;28;20196;-73
2022/09/09 04:32:35;;;;;;;7.90;6.67;;;;;;;14.24;100.00;100861.31;5024311;28;20471;-72
2022/09/09 04:35:01;;;;;;;8.53;7.10;;;;;;;13.82;100.00;100784.75;5031072;28;21175;-72
2022/09/09 04:37:26;;;;;;;8.83;6.70;;;;;;;14.02;100.00;100799.69;5024525;28;20467;-72
2022/09/09 04:39:52;;;;;;;8.40;6.27;;;;;;;14.46;100.00;100850.91;5033029;28;20451;-72
2022/09/09 04:42:19;;;;;;;9.20;6.37;;;;;;;14.02;100.00;100780.78;5029948;28;20696;-73
2022/09/09 04:44:45;;;;;;;10.30;6.20;;;;;;;14.54;100.00;100863.31;5023395;28;20192;-73
2022/09/09 04:47:10;;;;;;;7.43;5.17;;;;;;;13.87;100.00;100776.81;5056029;28;20853;-72
2022/09/09 04:49:36;;;;;;;7.00;5.90;;;;;;;14.26;100.00;100805.25;5027924;28;20645;-73
2022/09/09 04:52:03;;;;;;;11.00;6.77;;;;;;;14.28;100.00;100843.63;5060903;28;20615;-73
2022/09/09 04:54:28;;;;;;;7.93;5.30;;;;;;;14.16;100.00;100789.59;5027762;28;20209;-73
2022/09/09 04:56:54;;;;;;;9.47;5.33;;;;;;;14.57;100.00;100857.47;5027090;28;20470;-72
2022/09/09 04:59:20;;;;;;;8.83;5.87;;;;;;;13.94;100.00;100762.25;5038708;28;20294;-72
2022/09/09 05:01:45;;;;;;;8.73;5.57;;;;;;;13.69;100.00;100743.38;5022900;28;20596;-72
2022/09/09 05:04:11;;;;;;;7.53;6.17;;;;;;;13.98;100.00;100785.00;5031118;28;20719;-72
2022/09/09 05:06:37;;;;;;;11.90;5.80;;;;;;;14.57;100.00;100879.88;5025448;28;20698;-72
2022/09/09 05:09:02;;;;;;;6.60;4.90;;;;;;;14.08;100.00;100778.25;5028563;28;20468;-73
2022/09/09 05:11:32;;;;;;;9.30;5.80;;;;;;;14.36;100.00;100846.03;5030649;28;20285;-73
2022/09/09 05:13:57;;;;;;;8.13;6.40;;;;;;;13.93;100.00;100792.91;5037086;28;20554;-73
2022/09/09 05:16:23;;;;;;;7.70;5.30;;;;;;;13.54;100.00;100732.94;5032378;28;20473;-73
2022/09/09 05:18:50;;;;;;;11.10;5.07;;;;;;;14.56;100.00;100872.03;5026947;28;20279;-73
2022/09/09 05:21:17;;;;;;;9.57;5.43;;;;;;;14.65;100.00;100879.59;5031719;28;20430;-73
2022/09/09 05:23:44;;;;;;;5.80;5.20;;;;;;;14.23;100.00;100797.59;5040627;28;20978;-74
2022/09/09 05:26:13;;;;;;;5.30;4.63;;;;;;;14.86;100.00;100859.41;5035934;28;20442;-74
2022/09/09 05:28:38;;;;;;;8.13;6.17;;;;;;;14.79;100.00;100884.84;5030255;28;20438;-73
2022/09/09 05:31:08;;;;;;;11.37;5.47;;;;;;;14.58;100.00;100857.25;5030837;28;20443;-76
2022/09/09 05:33:35;;;;;;;8.80;4.83;;;;;;;14.22;100.00;100799.47;5027687;28;20196;-75
2022/09/09 05:36:04;;;;;;;9.40;5.00;;;;;;;14.43;100.00;100873.75;5030532;28;20545;-74
2022/09/09 05:38:32;;;;;;;7.33;5.47;;;;;;;13.96;100.00;100797.88;5025248;28;20438;-74
2022/09/09 05:40:57;;;;;;;8.03;5.20;;;;;;;14.52;100.00;100882.41;5029316;28;20870;-75
2022/09/09 05:43:24;;;;;;;9.17;5.07;;;;;;;13.70;100.00;100787.34;5027000;28;20433;-76
2022/09/09 05:46:09;;;;;;;6.77;4.73;;;;;;;14.34;100.00;100883.19;5024689;28;20201;-75
2022/09/09 05:48:38;;;;;;;5.63;5.03;;;;;;;13.90;100.00;100806.84;5026935;28;20529;-74
2022/09/09 05:51:08;;;;;;;6.50;5.07;;;;;;;14.46;100.00;100889.53;5027211;28;20969;-75
2022/09/09 05:53:34;;;;;;;5.60;4.07;;;;;;;14.54;100.00;100898.41;5025951;28;20906;-73
2022/09/09 05:56:03;;;;;;;5.60;4.93;;;;;;;14.38;100.00;100891.69;5031149;28;20493;-75
2022/09/09 05:58:29;;;;;;;7.27;4.90;;;;;;;14.35;100.00;100902.91;5054060;28;20191;-75
2022/09/09 06:01:01;;;;;;;7.40;4.57;;;;;;;13.31;100.00;100717.41;5017750;28;20446;-75
2022/09/09 06:03:27;;;;;;;6.17;4.73;;;;;;;14.15;100.00;100870.75;5014001;28;20451;-75
2022/09/09 06:06:00;;;;;;;4.30;3.70;;;;;;;13.69;100.00;100791.09;5025733;28;20443;-75
2022/09/09 06:08:26;;;;;;;5.90;4.27;;;;;;;13.71;100.00;100805.16;5028746;28;20254;-74
2022/09/09 06:10:52;;;;;;;6.43;4.23;;;;;;;13.59;100.00;100799.66;5033091;28;20441;-74
2022/09/09 06:13:17;;;;;;;7.20;4.93;;;;;;;13.62;100.00;100811.84;5041140;28;20200;-74
2022/09/09 06:15:52;;;;;;;7.80;4.90;;;;;;;14.04;100.00;100849.88;5014673;28;20447;-74
2022/09/09 06:18:18;;;;;;;7.77;4.40;;;;;;;13.72;100.00;100818.41;5028231;28;20208;-75
2022/09/09 06:20:58;;;;;;;7.40;4.57;;;;;;;14.04;100.00;100847.19;5017532;28;20442;-73
2022/09/09 06:23:25;;;;;;;7.10;3.90;;;;;;;13.50;100.00;100764.06;5016591;28;20442;-74
2022/09/09 06:25:50;;;;;;;5.73;4.20;;;;;;;14.38;100.00;100922.19;5028850;28;20453;-73
2022/09/09 06:28:17;;;;;;;8.10;4.40;;;;;;;13.79;100.00;100843.44;5019416;28;20466;-73
2022/09/09 06:30:43;;;;;;;4.97;3.80;;;;;;;13.74;100.00;100808.25;5030089;28;20191;-74
2022/09/09 06:33:09;;;;;;;5.30;4.43;;;;;;;14.57;100.00;100923.06;5021943;28;20978;-74
2022/09/09 06:35:35;;;;;;;5.20;3.60;;;;;;;14.04;100.00;100856.09;5032629;28;20199;-73
2022/09/09 06:38:00;;;;;;;5.00;3.70;;;;;;;13.87;100.00;100801.09;5062861;28;20456;-74
2022/09/09 06:40:26;;;;;;;7.20;3.57;;;;;;;13.88;100.00;100805.41;5023810;28;20184;-75
2022/09/09 06:42:51;;;;;;;5.23;3.63;;;;;;;13.84;100.00;100841.97;5030958;28;20188;-74
2022/09/09 06:45:17;;;;;;;3.70;3.30;;;;;;;13.73;100.00;100770.72;5032033;28;20202;-75
2022/09/09 06:47:43;;;;;;;6.27;3.67;;;;;;;13.82;100.00;100817.91;5017364;28;20681;-74
2022/09/09 06:50:10;;;;;;;4.63;3.43;;;;;;;14.39;100.00;100891.47;5035945;28;20471;-74
2022/09/09 06:52:35;;;;;;;4.00;3.47;;;;;;;13.92;100.00;100803.94;5031405;28;20549;-74
2022/09/09 06:55:00;;;;;;;4.27;3.00;;;;;;;14.02;100.00;100823.13;5029253;28;20630;-74
2022/09/09 06:57:26;;;;;;;5.20;3.50;;;;;;;14.56;100.00;100893.63;5016364;28;20204;-75
2022/09/09 06:59:51;;;;;;;4.43;3.43;;;;;;;14.78;100.00;100918.28;5029043;28;20187;-75
2022/09/09 07:02:17;;;;;;;5.63;3.10;;;;;;;14.80;100.00;100908.09;5032727;28;20191;-74
2022/09/09 07:04:42;;;;;;;6.07;3.03;;;;;;;14.33;100.00;100816.00;5033129;28;20754;-74
2022/09/09 07:07:09;;;;;;;10.63;3.50;;;;;;;14.28;100.00;100803.16;5028835;28;20718;-75
2022/09/09 07:09:35;;;;;;;6.40;3.17;;;;;;;14.91;100.00;100901.94;5024354;28;20188;-73
2022/09/09 07:12:00;;;;;;;3.10;2.80;;;;;;;15.27;100.00;100919.16;5032774;28;20447;-74
2022/09/09 07:14:26;;;;;;;5.00;2.97;;;;;;;14.86;100.00;100904.50;5033075;28;20660;-74
2022/09/09 07:16:52;;;;;;;5.83;3.40;;;;;;;15.03;100.00;100926.31;5035977;28;20665;-73
2022/09/09 07:19:17;;;;;;;3.93;3.53;;;;;;;15.05;100.00;100918.81;5032957;28;20453;-74
2022/09/09 07:21:43;;;;;;;6.40;3.20;;;;;;;14.84;100.00;100917.38;5031228;28;20188;-73
2022/09/09 07:24:10;;;;;;;5.73;3.43;;;;;;;14.76;100.00;100910.44;5033196;28;20610;-74
2022/09/09 07:26:37;;;;;;;3.77;3.40;;;;;;;14.52;100.00;100839.25;5033342;28;20200;-74
2022/09/09 07:29:03;;;;;;;3.83;3.43;;;;;;;15.32;100.00;100928.22;5034070;28;20439;-73
2022/09/09 07:31:31;;;;;;;3.30;3.07;;;;;;;15.02;100.00;100887.69;5033828;28;20887;-74
2022/09/09 07:33:59;;;;;;;4.63;3.80;;;;;;;14.54;100.00;100830.94;5031488;28;20470;-74
2022/09/09 07:36:30;;;;;;;5.93;3.50;;;;;;;14.53;100.00;100829.28;5060843;28;20459;-74
2022/09/09 07:38:58;;;;;;;5.20;3.40;;;;;;;15.20;100.00;100916.56;5031593;28;20938;-74
2022/09/09 07:41:31;;;;;;;3.40;3.10;;;;;;;15.44;100.00;100925.56;5033625;28;20427;-74
2022/09/09 07:43:58;;;;;;;3.87;3.57;;;;;;;15.69;100.00;100922.78;5018080;28;20758;-74
2022/09/09 07:46:26;;;;;;;4.13;3.80;;;;;;;15.43;100.00;100923.94;5031591;28;20506;-74
2022/09/09 07:48:55;;;;;;;9.53;3.53;;;;;;;15.52;100.00;100921.75;5032709;28;20451;-74
2022/09/09 07:51:33;;;;;;;4.17;2.60;;;;;;;15.08;100.00;100848.94;5029260;28;20525;-74
2022/09/09 07:54:01;;;;;;;4.23;3.50;;;;;;;15.78;100.00;100893.50;5030794;28;20458;-74
2022/09/09 07:56:28;;;;;;;4.00;3.60;;;;;;;15.53;100.00;100891.75;5031952;28;20504;-74
2022/09/09 07:58:55;;;;;;;4.07;3.43;;;;;;;15.57;100.00;100911.06;5031713;28;20442;-75
2022/09/09 08:01:22;;;;;;;3.43;3.13;;;;;;;15.78;100.00;100924.09;5037155;28;20439;-74
2022/09/09 08:04:02;;;;;;;4.47;3.23;;;;;;;15.64;100.00;100846.06;5021230;28;21068;-75
2022/09/09 08:06:34;;;;;;;4.47;4.00;;;;;;;15.74;100.00;100903.16;5041870;28;20478;-72
2022/09/09 08:09:00;;;;;;;5.60;4.50;;;;;;;15.69;100.00;100916.53;5025075;28;20450;-73
2022/09/09 08:11:27;;;;;;;4.73;3.43;;;;;;;16.12;100.00;100913.56;5018560;28;21427;-72
2022/09/09 08:13:53;;;;;;;7.43;4.80;;;;;;;16.20;100.00;100905.13;5052420;28;20590;-72
2022/09/09 08:16:22;;;;;;;4.90;4.00;;;;;;;16.03;100.00;100904.97;5027707;28;20573;-72
2022/09/09 08:18:52;;;;;;;7.10;4.50;;;;;;;16.00;100.00;100916.25;5051478;28;20435;-74
2022/09/09 08:21:19;;;;;;;4.90;4.07;;;;;;;15.71;100.00;100822.50;5019936;28;20445;-74
2022/09/09 08:23:47;;;;;;;5.50;3.60;;;;;;;15.69;100.00;100806.50;5009072;28;20525;-74
2022/09/09 08:26:22;;;;;;;6.17;4.30;;;;;;;16.26;100.00;100898.75;5017419;28;20511;-74
2022/09/09 08:28:51;;;;;;;6.03;4.17;;;;;;;16.11;100.00;100909.19;5024735;28;20450;-74
2022/09/09 08:31:19;;;;;;;4.90;3.97;;;;;;;16.13;100.00;100914.41;5009282;28;20958;-75
2022/09/09 08:33:47;;;;;;;4.97;4.03;;;;;;;16.42;100.00;100921.59;5017432;28;20521;-76
2022/09/09 08:36:18;;;;;;;4.07;3.40;;;;;;;16.54;100.00;100927.00;5029356;28;20439;-74
2022/09/09 08:38:47;;;;;;;5.00;3.13;;;;;;;16.77;100.00;100919.94;5033873;28;20442;-75
2022/09/09 08:41:25;;;;;;;7.67;3.47;;;;;;;17.11;100.00;100921.75;5013099;28;20430;-82
2022/09/09 08:43:58;;;;;;;4.70;4.13;;;;;;;16.91;100.00;100933.00;5053555;28;20439;-76
2022/09/09 08:46:43;;;;;;;6.30;3.90;;;;;;;16.18;100.00;100762.97;5037609;28;20495;-76
2022/09/09 08:49:17;;;;;;;3.23;2.93;;;;;;;16.65;100.00;100838.69;5022698;28;20442;-75
2022/09/09 08:51:43;;;;;;;11.03;4.50;;;;;;;16.56;100.00;100862.59;5023848;28;20445;-74
2022/09/09 08:54:09;;;;;;;6.07;3.70;;;;;;;16.63;100.00;100800.19;5026200;28;20466;-74
2022/09/09 08:56:36;;;;;;;5.40;3.83;;;;;;;16.64;100.00;100813.50;5030591;28;20219;-75
2022/09/09 08:59:03;;;;;;;4.93;3.80;;;;;;;16.45;100.00;100803.88;5023747;28;20919;-74
2022/09/09 09:01:56;;;;;;;5.00;3.47;;;;;;;17.54;100.00;100900.63;5026780;28;20947;-74
2022/09/09 09:04:35;;;;;;;7.00;3.57;;;;;;;16.26;100.00;100762.63;5026262;28;20435;-73
2022/09/09 09:07:28;;;;;;;3.23;2.90;;;;;;;17.39;100.00;100901.97;5027475;28;20552;-75
2022/09/09 09:10:00;;;;;;;8.00;3.10;;;;;;;17.48;100.00;100894.28;5018690;28;20879;-73
2022/09/09 09:12:34;;;;;;;3.03;2.67;;;;;;;17.20;100.00;100812.97;5018216;28;20446;-74
2022/09/09 09:15:00;;;;;;;6.60;2.60;;;;;;;17.04;100.00;100823.53;5004942;28;20448;-73
2022/09/09 09:17:31;;;;;;;7.83;3.00;;;;;;;17.15;100.00;100843.50;5020735;28;20462;-73
2022/09/09 09:19:59;;;;;;;4.13;2.50;;;;;;;17.60;100.00;100892.31;5024129;28;20172;-73
2022/09/09 09:22:41;;;;;;;9.27;3.33;;;;;;;17.50;100.00;100894.00;5032111;28;20596;-74
2022/09/09 09:25:17;;;;;;;4.57;3.17;;;;;;;17.50;100.00;100881.31;5031608;28;26755;-73
2022/09/09 09:27:49;;;;;;;3.83;2.80;;;;;;;17.55;100.00;100878.66;5031463;28;20469;-73
2022/09/09 09:30:19;;;;;;;4.40;2.80;;;;;;;17.44;100.00;100873.31;5028475;28;20994;-71
2022/09/09 09:32:59;;;;;;;8.03;3.10;;;;;;;17.13;100.00;100794.97;5020844;28;20474;-71
2022/09/09 09:35:24;;;;;;;3.53;2.80;;;;;;;17.76;100.00;100881.72;5021141;28;20935;-71
2022/09/09 09:37:50;;;;;;;4.57;2.60;;;;;;;17.37;100.00;100776.69;5024849;28;20462;-70
2022/09/09 09:40:19;;;;;;;3.60;2.37;;;;;;;17.35;100.00;100756.28;5025954;28;20662;-72
2022/09/09 09:43:07;;;;;;;4.30;2.50;;;;;;;17.65;100.00;100798.53;5011097;28;20226;-71
2022/09/09 09:45:46;;;;;;;6.97;3.60;;;;;;;17.94;100.00;100867.16;5015112;28;20442;-72
2022/09/09 09:48:13;;;;;;;4.40;2.60;;;;;;;18.39;100.00;100883.28;5014804;28;20463;-72
2022/09/09 09:50:57;;;;;;;6.73;4.03;;;;;;;17.87;100.00;100880.88;5029704;28;20445;-71
2022/09/09 09:53:33;;;;;;;5.03;3.37;;;;;;;17.52;100.00;100807.81;5034871;28;20455;-71
2022/09/09 09:56:03;;;;;;;5.47;3.37;;;;;;;17.84;100.00;100875.94;5028164;28;20433;-71
2022/09/09 09:58:38;;;;;;;5.93;3.63;;;;;;;17.93;100.00;100879.06;5033221;28;20454;-71
2022/09/09 10:01:04;;;;;;;6.90;3.40;;;;;;;17.53;100.00;100815.72;5035725;28;20449;-71
2022/09/09 10:03:40;;;;;;;4.17;3.00;;;;;;;17.34;100.00;100812.41;5032958;28;20451;-72
2022/09/09 12:23:51;;;;;;;4.23;1.97;;;;;;;20.67;100.00;100825.09;6051727;22;2100763;-75
2022/09/09 12:26:29;;;;;;;7.60;1.83;;;;;;;19.25;100.00;100632.63;6129587;23;20172;-74
2022/09/09 12:32:22;;;;;;;5.03;1.40;;;;;;;19.96;100.00;100673.06;6135250;23;20448;-76
2022/09/09 12:34:54;;;;;;;3.00;1.10;;;;;;;19.06;100.00;100457.41;6103983;23;20732;-76
2022/09/09 12:37:37;;;;;;;6.40;2.00;;;;;;;21.01;100.00;100764.69;6128433;23;20361;-81
2022/09/09 12:40:03;;;;;;;3.90;1.30;;;;;;;21.80;100.00;100777.00;6124353;23;20365;-74
2022/09/09 12:42:29;;;;;;;3.20;1.23;;;;;;;20.44;100.00;100604.84;6123610;23;20401;-74
2022/09/09 12:45:00;;;;;;;6.33;1.77;;;;;;;18.97;100.00;100459.81;6127956;23;20565;-74
2022/09/09 12:47:40;;;;;;;4.70;1.30;;;;;;;18.73;100.00;100454.81;6127250;23;20455;-73
2022/09/09 12:50:18;;;;;;;4.77;1.30;;;;;;;21.25;100.00;100788.72;6100670;23;20381;-75
2022/09/09 12:52:46;;;;;;;6.83;1.73;;;;;;;19.97;100.00;100579.41;6124436;23;20890;-74
2022/09/09 12:55:21;;;;;;;4.03;1.47;;;;;;;19.85;100.00;100465.34;6128211;23;20833;-74
2022/09/09 12:57:50;;;;;;;4.93;1.47;;;;;;;21.07;100.00;100646.34;6127803;23;20384;-74
2022/09/09 13:00:20;;;;;;;3.43;1.30;;;;;;;21.08;100.00;100682.63;6125678;23;20875;-74
2022/09/09 13:02:50;;;;;;;3.90;1.63;;;;;;;20.58;100.00;100558.84;6125259;23;20416;-74
2022/09/09 13:05:23;;;;;;;3.77;1.30;;;;;;;21.24;100.00;100577.88;6126667;23;20443;-74
2022/09/09 13:07:49;;;;;;;4.57;1.43;;;;;;;20.99;100.00;100630.53;6127179;23;20365;-74
2022/09/09 13:10:23;;;;;;;7.60;1.50;;;;;;;20.62;100.00;100525.31;6100543;23;20558;-74
2022/09/09 13:12:49;;;;;;;4.77;1.40;;;;;;;21.87;100.00;100749.41;6127175;23;20432;-75
2022/09/09 13:15:22;;;;;;;5.43;1.37;;;;;;;20.17;100.00;100591.47;6126696;23;20463;-75
2022/09/09 13:18:06;;;;;;;4.40;1.40;;;;;;;20.01;100.00;100492.59;6126400;23;20138;-75
2022/09/09 13:20:31;;;;;;;3.10;1.07;;;;;;;19.94;100.00;100577.22;6126926;23;20393;-75
2022/09/09 13:22:57;;;;;;;3.03;1.53;;;;;;;19.54;100.00;100414.66;6122379;23;20401;-77
2022/09/09 13:25:28;;;;;;;4.33;1.73;;;;;;;20.63;100.00;100610.63;6094257;23;20166;-77
2022/09/09 13:28:03;;;;;;;4.57;1.20;;;;;;;21.22;100.00;100700.88;6094516;23;20393;-76
2022/09/09 13:30:39;;;;;;;4.47;1.50;;;;;;;19.40;100.00;100455.94;6120039;23;20365;-77
2022/09/09 13:33:12;;;;;;;6.00;1.50;;;;;;;21.18;100.00;100753.53;6093638;23;20503;-75
2022/09/09 13:35:54;;;;;;;4.10;1.10;;;;;;;19.19;100.00;100446.88;6120152;23;20911;-76
2022/09/09 13:38:21;;;;;;;3.87;1.20;;;;;;;19.67;100.00;100584.75;6119026;23;20370;-74
2022/09/09 13:40:59;;;;;;;3.33;1.10;;;;;;;18.85;100.00;100478.25;6120271;23;20464;-74
2022/09/09 13:43:26;;;;;;;2.90;1.40;;;;;;;19.37;100.00;100529.09;6120458;23;20393;-74
2022/09/09 13:46:04;;;;;;;6.07;1.70;;;;;;;19.80;100.00;100644.13;6119863;23;20392;-76
2022/09/09 13:48:31;;;;;;;2.40;1.07;;;;;;;19.69;100.00;100566.25;6093841;23;20394;-76
2022/09/09 13:51:02;;;;;;;1.73;1.00;;;;;;;18.89;100.00;100512.78;6093663;23;20389;-75
2022/09/09 13:53:28;;;;;;;5.57;1.43;;;;;;;19.03;100.00;100534.88;6119298;23;20433;-75
2022/09/09 13:55:54;;;;;;;3.50;1.00;;;;;;;19.01;100.00;100596.84;6120069;23;20388;-74